KMFR

Rogue Valley International - Medford Airport

Medford, Oregon, USA
METAR KMFR 221853Z 00000KT 10SM CLR 16/01 A2995 RMK AO2 SLP140 T01560011
Observed Flight Rules
Oct-22 @ 18:53 UTC (43 minutes ago) Visual Flight Rules
Visibility Clouds
10 miles
  • Clear skies
Temperatures Readings
Current 16°C / 61°F
Dewpoint 1°C / 34°F
Humidity 36%
Altimeter 29.95" Hg
Pressure 1014 hPa
Elevation 396
METAR KMFR 221853Z 00000KT 10SM CLR 16/01 A2995 RMK AO2 SLP140 T01560011
Observed Flight Rules
Oct-22 @ 18:53 UTC
(43 minutes ago)
VFR
Clouds
  • Clear skies
Temperature Dewpoint
16°C / 61°F 1°C / 34°F
Humidity Altimeter Pressure
36% 29.95" Hg 1014 hPa